CheckWX is a tool to help pilots better visualize weather data.  It is not intended as a substitute for an official pre-flight weather briefing.

07:09:36 UTC

KPQN METAR
Pipestone Municipal Airport
Pipestone, Minnesota, USA
Current

14 mins ago

KPQN 230656Z AUTO 00000KT 10SM CLR 11/09 A3000 RMK AO2
Observed
Sep-23 @ 06:56 UTC
Visibility
10 SM
Flight Rules
VFR
Cloud Levels
  • Clear skies
Temperature
11°C / 52°F
Dewpoint
C / 48°F
Humidity
88%
Altimeter
30" Hg
Pressure
1015.92 hPa
Previous

34 mins ago

KPQN 230636Z AUTO 00000KT 10SM CLR 11/09 A2999 RMK AO2
Observed
Sep-23 @ 06:36 UTC
Visibility
10 SM
Flight Rules
VFR
Cloud Levels
  • Clear skies
Temperature
11°C / 52°F
Dewpoint
C / 48°F
Humidity
88%
Altimeter
29.99" Hg
Pressure
1015.62 hPa
Previous

54 mins ago

KPQN 230616Z AUTO 00000KT 10SM CLR 11/09 A2999 RMK AO2
Observed
Sep-23 @ 06:16 UTC
Visibility
10 SM
Flight Rules
VFR
Cloud Levels
  • Clear skies
Temperature
11°C / 52°F
Dewpoint
C / 48°F
Humidity
88%
Altimeter
29.99" Hg
Pressure
1015.62 hPa